Crowell, TX (79227)

11:14 PM CDT on September 15, 2014 (GMT -0500)
Circle J Ranch | Change Station
CLOSE
Current Station
Personal Weather Station
Location: Quanah, TX
Elevation: 1476 ft
Nearby Weather Stations

Elev 1476 ft 34.13 °N, 99.73 °W | Updated 26 seconds ago

Overcast
Overcast
76.1 °F
Feels Like 74 °F
N
1.8
Wind Variable Wind from East
Gusts 1.8 mph

Today
High -- | Low -- °F
--% Chance of Precip.
Yesterday
High -- | Low -- °F
Precip. -- in
7:22 AM 7:45 PM
Waning Gibbous, 49% visible
Pressure 30.15 in
Visibility 10.0 miles
Clouds Overcast 9000 ft
Heat Index 74 °F
Dew Point Not available.
Humidity Not available.
Rainfall 0.00 in
Snow Depth Not available.
UV 0 out of 12
Pollen 9.70 out of 12
Air Quality Not available.
Flu Activity Not available.
METAR KF05 160355Z AUTO 13006KT 10SM OVC090 26/19 A3015 RMK AO1 T02610194

More Conditions Fewer Conditions

Pressure 30.15 in
Visibility 10.0 miles
Clouds Overcast 9000 ft
Heat Index 74 °F
Dew Point Not available.
Humidity Not available.
Rainfall 0.00 in
Snow Depth Not available.
UV 0 out of 12
Pollen 9.70 out of 12
Air Quality Not available.
Flu Activity Not available.
METAR KF05 160355Z AUTO 13006KT 10SM OVC090 26/19 A3015 RMK AO1 T02610194

More Conditions Fewer Conditions

10-Day Weather Forecast

Almanac

Astronomy

Sep. 15, 2014 Rise Set
Actual Time 7:22 AM CDT 7:45 PM CDT
Civil Twilight 6:57 AM CDT 8:10 PM CDT
Nautical Twilight 6:27 AM CDT 8:39 PM CDT
Astronomical Twilight 5:58 AM CDT 9:09 PM CDT
Moon No Moon Rise 2:08 PM CDT (9/15)
Length of Visible Light 13h 13m
Length of Day
12h 23m
Tomorrow will be 2m 6s shorter.
Waning Gibbous, 49% of the Moon is Illuminated
Sep 16
Waning Gibbous
Sep 24
New
Oct 1
First Quarter
Oct 8
Full
Oct 15
Last Quarter

Today's Extremes

State Highs State Lows

Community

WunderPhotos

Upload Photos

1,753,699 photos uploaded!

Nearby

Snow Depth

Station Depth Elevation
No new snow has been reported.

Earthquake Activity

City Distance Mag. Time & Date
Snyder, Texas 96 miles 3.2 4:19 AM CDT
2014-09-14
Minimum magnitude displayed is 2.5.

Coastal Water Temperatures

Place Temperature
No Stations Reporting

Nearby Weather Stations